sensor_id;sensor_type;location;lat;lon;timestamp;pressure;altitude;pressure_sealevel;temperature;humidity
47716;BME280;33476;50.984;3.538;2023-03-26T00:00:22;100780.75;;;12.79;63.10
47716;BME280;33476;50.984;3.538;2023-03-26T00:02:47;100777.47;;;12.76;63.36
47716;BME280;33476;50.984;3.538;2023-03-26T00:05:13;100780.16;;;12.74;63.26
47716;BME280;33476;50.984;3.538;2023-03-26T00:07:39;100775.78;;;12.75;63.26
47716;BME280;33476;50.984;3.538;2023-03-26T00:10:05;100768.75;;;12.75;63.34
47716;BME280;33476;50.984;3.538;2023-03-26T00:12:30;100766.88;;;12.77;63.36
47716;BME280;33476;50.984;3.538;2023-03-26T00:14:56;100774.84;;;12.76;62.98
47716;BME280;33476;50.984;3.538;2023-03-26T00:17:21;100772.13;;;12.77;62.99
47716;BME280;33476;50.984;3.538;2023-03-26T00:19:47;100773.63;;;12.81;62.73
47716;BME280;33476;50.984;3.538;2023-03-26T00:22:12;100771.94;;;12.80;62.92
47716;BME280;33476;50.984;3.538;2023-03-26T00:24:41;100767.63;;;12.79;62.73
47716;BME280;33476;50.984;3.538;2023-03-26T00:27:10;100765.84;;;12.80;63.02
47716;BME280;33476;50.984;3.538;2023-03-26T00:29:35;100759.97;;;12.76;63.14
47716;BME280;33476;50.984;3.538;2023-03-26T00:32:00;100748.53;;;12.77;63.67
47716;BME280;33476;50.984;3.538;2023-03-26T00:34:26;100746.03;;;12.76;63.64
47716;BME280;33476;50.984;3.538;2023-03-26T00:36:51;100739.00;;;12.76;63.58
47716;BME280;33476;50.984;3.538;2023-03-26T00:39:21;100728.22;;;12.67;63.73
47716;BME280;33476;50.984;3.538;2023-03-26T00:41:48;100724.75;;;12.66;63.81
47716;BME280;33476;50.984;3.538;2023-03-26T00:44:18;100719.50;;;12.66;63.98
47716;BME280;33476;50.984;3.538;2023-03-26T00:46:43;100711.66;;;12.66;64.26
47716;BME280;33476;50.984;3.538;2023-03-26T00:49:08;100704.63;;;12.67;64.44
47716;BME280;33476;50.984;3.538;2023-03-26T00:51:34;100705.63;;;12.64;64.57
47716;BME280;33476;50.984;3.538;2023-03-26T00:54:01;100698.72;;;12.63;64.77
47716;BME280;33476;50.984;3.538;2023-03-26T00:56:26;100693.47;;;12.63;64.64
47716;BME280;33476;50.984;3.538;2023-03-26T00:58:52;100687.47;;;12.61;64.99
47716;BME280;33476;50.984;3.538;2023-03-26T01:01:21;100681.66;;;12.56;65.11
47716;BME280;33476;50.984;3.538;2023-03-26T01:03:52;100673.97;;;12.53;65.03
47716;BME280;33476;50.984;3.538;2023-03-26T01:06:27;100679.41;;;12.50;65.16
47716;BME280;33476;50.984;3.538;2023-03-26T01:08:58;100675.91;;;12.49;65.20
47716;BME280;33476;50.984;3.538;2023-03-26T01:11:33;100662.50;;;12.40;65.06
47716;BME280;33476;50.984;3.538;2023-03-26T01:14:07;100668.13;;;12.33;65.44
47716;BME280;33476;50.984;3.538;2023-03-26T01:16:38;100663.75;;;12.34;65.35
47716;BME280;33476;50.984;3.538;2023-03-26T01:19:11;100654.34;;;12.30;65.06
47716;BME280;33476;50.984;3.538;2023-03-26T01:21:38;100656.22;;;12.28;65.54
47716;BME280;33476;50.984;3.538;2023-03-26T01:24:08;100651.25;;;12.23;65.44
47716;BME280;33476;50.984;3.538;2023-03-26T01:26:49;100649.75;;;12.19;65.33
47716;BME280;33476;50.984;3.538;2023-03-26T01:35:23;100636.31;;;12.25;64.96
47716;BME280;33476;50.984;3.538;2023-03-26T01:39:58;100622.09;;;12.29;64.88
47716;BME280;33476;50.984;3.538;2023-03-26T01:42:55;100626.09;;;12.21;64.96
47716;BME280;33476;50.984;3.538;2023-03-26T01:45:25;100625.06;;;12.23;65.02
47716;BME280;33476;50.984;3.538;2023-03-26T01:47:52;100615.50;;;12.22;65.21
47716;BME280;33476;50.984;3.538;2023-03-26T01:50:19;100618.22;;;12.21;65.16
47716;BME280;33476;50.984;3.538;2023-03-26T01:52:44;100609.72;;;12.17;64.98
47716;BME280;33476;50.984;3.538;2023-03-26T01:55:10;100608.19;;;12.13;65.09
47716;BME280;33476;50.984;3.538;2023-03-26T01:58:02;100589.66;;;12.02;65.26
47716;BME280;33476;50.984;3.538;2023-03-26T02:00:32;100588.44;;;12.07;65.29
47716;BME280;33476;50.984;3.538;2023-03-26T02:08:40;100567.34;;;12.11;64.50
47716;BME280;33476;50.984;3.538;2023-03-26T02:11:12;100562.84;;;12.13;64.33
47716;BME280;33476;50.984;3.538;2023-03-26T02:13:39;100558.81;;;12.07;64.52
47716;BME280;33476;50.984;3.538;2023-03-26T02:16:08;100549.84;;;12.11;64.40
47716;BME280;33476;50.984;3.538;2023-03-26T02:18:33;100547.13;;;12.13;64.49
47716;BME280;33476;50.984;3.538;2023-03-26T02:21:23;100534.50;;;12.05;64.46
47716;BME280;33476;50.984;3.538;2023-03-26T02:23:52;100536.75;;;12.11;64.15
47716;BME280;33476;50.984;3.538;2023-03-26T02:26:26;100532.19;;;12.15;63.98
47716;BME280;33476;50.984;3.538;2023-03-26T02:28:52;100525.09;;;12.17;63.76
47716;BME280;33476;50.984;3.538;2023-03-26T02:31:17;100515.47;;;12.17;63.57
47716;BME280;33476;50.984;3.538;2023-03-26T02:33:43;100510.28;;;12.16;63.84
47716;BME280;33476;50.984;3.538;2023-03-26T02:36:09;100504.22;;;12.15;63.49
47716;BME280;33476;50.984;3.538;2023-03-26T02:38:37;100500.59;;;12.18;63.69
47716;BME280;33476;50.984;3.538;2023-03-26T02:41:03;100490.97;;;12.18;63.59
47716;BME280;33476;50.984;3.538;2023-03-26T02:43:29;100478.03;;;12.15;63.57
47716;BME280;33476;50.984;3.538;2023-03-26T02:45:55;100468.59;;;12.13;63.34
47716;BME280;33476;50.984;3.538;2023-03-26T02:48:20;100470.72;;;12.06;63.58
47716;BME280;33476;50.984;3.538;2023-03-26T02:50:46;100459.44;;;12.05;63.39
47716;BME280;33476;50.984;3.538;2023-03-26T02:53:15;100452.41;;;12.06;63.39
47716;BME280;33476;50.984;3.538;2023-03-26T02:55:40;100445.50;;;12.05;63.48
47716;BME280;33476;50.984;3.538;2023-03-26T02:58:06;100441.94;;;12.06;63.45
47716;BME280;33476;50.984;3.538;2023-03-26T03:00:32;100440.06;;;12.08;63.23
47716;BME280;33476;50.984;3.538;2023-03-26T03:02:58;100430.38;;;12.10;63.05
47716;BME280;33476;50.984;3.538;2023-03-26T03:05:24;100420.75;;;12.11;63.09
47716;BME280;33476;50.984;3.538;2023-03-26T03:07:52;100414.00;;;12.06;63.16
47716;BME280;33476;50.984;3.538;2023-03-26T03:10:24;100405.28;;;12.06;63.27
47716;BME280;33476;50.984;3.538;2023-03-26T03:12:49;100406.91;;;12.08;63.22
47716;BME280;33476;50.984;3.538;2023-03-26T03:15:15;100400.72;;;12.09;63.07
47716;BME280;33476;50.984;3.538;2023-03-26T03:17:40;100397.06;;;12.12;63.10
47716;BME280;33476;50.984;3.538;2023-03-26T03:20:06;100389.88;;;12.16;63.09
47716;BME280;33476;50.984;3.538;2023-03-26T03:22:34;100381.16;;;12.15;62.85
47716;BME280;33476;50.984;3.538;2023-03-26T03:24:59;100375.94;;;12.15;62.63
47716;BME280;33476;50.984;3.538;2023-03-26T03:27:25;100359.69;;;12.10;62.86
47716;BME280;33476;50.984;3.538;2023-03-26T03:29:51;100355.66;;;12.04;62.75
47716;BME280;33476;50.984;3.538;2023-03-26T03:32:21;100345.09;;;12.06;62.57
47716;BME280;33476;50.984;3.538;2023-03-26T03:34:48;100339.69;;;12.09;62.53
47716;BME280;33476;50.984;3.538;2023-03-26T03:37:18;100336.22;;;12.08;62.47
47716;BME280;33476;50.984;3.538;2023-03-26T03:39:44;100331.63;;;12.12;62.61
47716;BME280;33476;50.984;3.538;2023-03-26T03:42:10;100322.47;;;12.05;63.07
47716;BME280;33476;50.984;3.538;2023-03-26T03:44:35;100321.84;;;12.01;62.84
47716;BME280;33476;50.984;3.538;2023-03-26T03:47:00;100318.66;;;11.96;63.05
47716;BME280;33476;50.984;3.538;2023-03-26T03:49:26;100321.25;;;11.96;63.37
47716;BME280;33476;50.984;3.538;2023-03-26T03:51:51;100316.78;;;11.98;63.29
47716;BME280;33476;50.984;3.538;2023-03-26T03:54:16;100311.63;;;11.97;63.16
47716;BME280;33476;50.984;3.538;2023-03-26T03:56:42;100314.94;;;12.00;63.01
47716;BME280;33476;50.984;3.538;2023-03-26T03:59:10;100308.75;;;12.01;63.17
47716;BME280;33476;50.984;3.538;2023-03-26T04:01:36;100298.56;;;11.97;63.05
47716;BME280;33476;50.984;3.538;2023-03-26T04:04:01;100296.78;;;11.97;63.41
47716;BME280;33476;50.984;3.538;2023-03-26T04:06:26;100292.94;;;11.89;63.28
47716;BME280;33476;50.984;3.538;2023-03-26T04:08:55;100287.72;;;11.89;63.50
47716;BME280;33476;50.984;3.538;2023-03-26T04:11:20;100283.53;;;11.86;63.53
47716;BME280;33476;50.984;3.538;2023-03-26T04:13:46;100279.50;;;11.80;63.78
47716;BME280;33476;50.984;3.538;2023-03-26T04:16:12;100270.72;;;11.81;63.62
47716;BME280;33476;50.984;3.538;2023-03-26T04:18:37;100277.72;;;11.81;63.67
47716;BME280;33476;50.984;3.538;2023-03-26T04:21:04;100257.13;;;11.75;63.99
47716;BME280;33476;50.984;3.538;2023-03-26T04:23:30;100258.16;;;11.72;63.94
47716;BME280;33476;50.984;3.538;2023-03-26T04:25:57;100243.31;;;11.73;64.33
47716;BME280;33476;50.984;3.538;2023-03-26T04:28:31;100224.63;;;11.79;63.99
47716;BME280;33476;50.984;3.538;2023-03-26T04:30:59;100234.91;;;11.82;63.82
47716;BME280;33476;50.984;3.538;2023-03-26T04:33:30;100220.31;;;11.78;64.14
47716;BME280;33476;50.984;3.538;2023-03-26T04:35:56;100223.50;;;11.83;64.08
47716;BME280;33476;50.984;3.538;2023-03-26T04:38:28;100222.66;;;11.82;64.07
47716;BME280;33476;50.984;3.538;2023-03-26T04:40:54;100222.66;;;11.82;63.77
47716;BME280;33476;50.984;3.538;2023-03-26T04:43:24;100219.84;;;11.71;64.05
47716;BME280;33476;50.984;3.538;2023-03-26T04:45:51;100213.06;;;11.69;64.36
47716;BME280;33476;50.984;3.538;2023-03-26T04:48:17;100212.13;;;11.70;64.19
47716;BME280;33476;50.984;3.538;2023-03-26T04:50:45;100209.19;;;11.74;64.17
47716;BME280;33476;50.984;3.538;2023-03-26T04:53:14;100194.34;;;11.75;63.90
47716;BME280;33476;50.984;3.538;2023-03-26T04:55:44;100202.50;;;11.70;64.07
47716;BME280;33476;50.984;3.538;2023-03-26T04:58:10;100192.75;;;11.72;64.29
47716;BME280;33476;50.984;3.538;2023-03-26T05:00:38;100189.09;;;11.75;64.24
47716;BME280;33476;50.984;3.538;2023-03-26T05:03:04;100186.50;;;11.75;64.29
47716;BME280;33476;50.984;3.538;2023-03-26T05:05:30;100184.81;;;11.74;64.13
47716;BME280;33476;50.984;3.538;2023-03-26T05:07:55;100178.47;;;11.78;64.16
47716;BME280;33476;50.984;3.538;2023-03-26T05:10:22;100174.66;;;11.84;63.67
47716;BME280;33476;50.984;3.538;2023-03-26T05:12:48;100176.34;;;11.85;63.37
47716;BME280;33476;50.984;3.538;2023-03-26T05:15:14;100176.25;;;11.86;63.46
47716;BME280;33476;50.984;3.538;2023-03-26T05:17:40;100175.41;;;11.86;63.30
47716;BME280;33476;50.984;3.538;2023-03-26T05:20:22;100168.38;;;11.86;63.35
47716;BME280;33476;50.984;3.538;2023-03-26T05:22:48;100174.16;;;11.91;63.15
47716;BME280;33476;50.984;3.538;2023-03-26T05:25:15;100177.44;;;11.95;63.31
47716;BME280;33476;50.984;3.538;2023-03-26T05:27:41;100172.19;;;11.95;63.52
47716;BME280;33476;50.984;3.538;2023-03-26T05:30:07;100173.50;;;11.88;63.67
47716;BME280;33476;50.984;3.538;2023-03-26T05:32:34;100166.69;;;11.71;63.84
47716;BME280;33476;50.984;3.538;2023-03-26T05:35:00;100162.44;;;11.56;64.60
47716;BME280;33476;50.984;3.538;2023-03-26T05:37:28;100164.56;;;11.49;64.89
47716;BME280;33476;50.984;3.538;2023-03-26T05:39:55;100168.97;;;11.48;65.02
47716;BME280;33476;50.984;3.538;2023-03-26T05:42:21;100166.75;;;11.42;64.99
47716;BME280;33476;50.984;3.538;2023-03-26T05:44:47;100161.31;;;11.31;65.30
47716;BME280;33476;50.984;3.538;2023-03-26T05:47:12;100159.75;;;11.29;65.39
47716;BME280;33476;50.984;3.538;2023-03-26T05:49:37;100153.13;;;11.23;65.75
47716;BME280;33476;50.984;3.538;2023-03-26T05:52:03;100149.03;;;11.19;65.98
47716;BME280;33476;50.984;3.538;2023-03-26T05:54:28;100142.75;;;11.21;65.82
47716;BME280;33476;50.984;3.538;2023-03-26T05:56:53;100147.25;;;11.19;65.92
47716;BME280;33476;50.984;3.538;2023-03-26T05:59:21;100132.66;;;11.15;66.13
47716;BME280;33476;50.984;3.538;2023-03-26T06:01:46;100136.53;;;11.10;66.18
47716;BME280;33476;50.984;3.538;2023-03-26T06:04:11;100136.53;;;11.10;66.50
47716;BME280;33476;50.984;3.538;2023-03-26T06:06:38;100129.69;;;11.07;66.72
47716;BME280;33476;50.984;3.538;2023-03-26T06:09:03;100122.63;;;11.09;66.91
47716;BME280;33476;50.984;3.538;2023-03-26T06:11:30;100127.91;;;11.08;67.12
47716;BME280;33476;50.984;3.538;2023-03-26T06:13:56;100122.63;;;11.09;67.02
47716;BME280;33476;50.984;3.538;2023-03-26T06:16:22;100130.06;;;11.01;67.33
47716;BME280;33476;50.984;3.538;2023-03-26T06:18:47;100120.81;;;10.95;67.44
47716;BME280;33476;50.984;3.538;2023-03-26T06:21:16;100120.66;;;10.84;67.44
47716;BME280;33476;50.984;3.538;2023-03-26T06:23:42;100104.75;;;10.73;67.18
47716;BME280;33476;50.984;3.538;2023-03-26T06:26:07;100108.50;;;10.69;67.14
47716;BME280;33476;50.984;3.538;2023-03-26T06:28:32;100101.59;;;10.68;67.42
47716;BME280;33476;50.984;3.538;2023-03-26T06:30:59;100099.53;;;10.73;67.50
47716;BME280;33476;50.984;3.538;2023-03-26T06:33:25;100093.22;;;10.77;67.35
47716;BME280;33476;50.984;3.538;2023-03-26T06:35:51;100089.81;;;10.75;67.58
47716;BME280;33476;50.984;3.538;2023-03-26T06:38:16;100090.41;;;10.80;67.55
47716;BME280;33476;50.984;3.538;2023-03-26T06:40:42;100082.00;;;10.75;67.70
47716;BME280;33476;50.984;3.538;2023-03-26T06:43:10;100091.78;;;10.72;67.80
47716;BME280;33476;50.984;3.538;2023-03-26T06:45:36;100083.47;;;10.65;67.93
47716;BME280;33476;50.984;3.538;2023-03-26T06:48:01;100084.72;;;10.59;68.06
47716;BME280;33476;50.984;3.538;2023-03-26T06:50:27;100085.91;;;10.54;68.22
47716;BME280;33476;50.984;3.538;2023-03-26T06:52:55;100089.44;;;10.53;68.13
47716;BME280;33476;50.984;3.538;2023-03-26T06:55:21;100084.38;;;10.50;68.28
47716;BME280;33476;50.984;3.538;2023-03-26T06:57:51;100084.38;;;10.50;68.49
47716;BME280;33476;50.984;3.538;2023-03-26T07:00:17;100085.31;;;10.49;68.46
47716;BME280;33476;50.984;3.538;2023-03-26T07:02:43;100083.66;;;10.48;68.60
47716;BME280;33476;50.984;3.538;2023-03-26T07:05:08;100084.03;;;10.56;68.36
47716;BME280;33476;50.984;3.538;2023-03-26T07:07:33;100089.75;;;10.62;68.51
47716;BME280;33476;50.984;3.538;2023-03-26T07:09:59;100079.28;;;10.62;68.11
47716;BME280;33476;50.984;3.538;2023-03-26T07:12:25;100071.47;;;10.62;68.12
47716;BME280;33476;50.984;3.538;2023-03-26T07:14:51;100071.66;;;10.59;68.09
47716;BME280;33476;50.984;3.538;2023-03-26T07:17:17;100070.72;;;10.60;68.09
47716;BME280;33476;50.984;3.538;2023-03-26T07:19:42;100073.03;;;10.65;67.75
47716;BME280;33476;50.984;3.538;2023-03-26T07:22:19;100069.59;;;10.64;68.04
47716;BME280;33476;50.984;3.538;2023-03-26T07:24:46;100065.88;;;10.68;67.79
47716;BME280;33476;50.984;3.538;2023-03-26T07:30:07;100057.19;;;10.68;68.16
47716;BME280;33476;50.984;3.538;2023-03-26T07:32:40;100058.03;;;10.68;68.29
47716;BME280;33476;50.984;3.538;2023-03-26T07:43:27;100062.78;;;10.62;68.36
47716;BME280;33476;50.984;3.538;2023-03-26T07:45:55;100063.97;;;10.56;67.98
47716;BME280;33476;50.984;3.538;2023-03-26T07:48:26;100061.56;;;10.53;68.13
47716;BME280;33476;50.984;3.538;2023-03-26T07:50:54;100060.53;;;10.56;67.89
47716;BME280;33476;50.984;3.538;2023-03-26T07:53:20;100060.53;;;10.56;67.91
47716;BME280;33476;50.984;3.538;2023-03-26T07:56:03;100058.13;;;10.53;67.97
47716;BME280;33476;50.984;3.538;2023-03-26T08:01:07;100051.31;;;10.64;67.77
47716;BME280;33476;50.984;3.538;2023-03-26T08:04:03;100051.78;;;10.71;67.48
47716;BME280;33476;50.984;3.538;2023-03-26T08:06:36;100047.13;;;10.76;67.26
47716;BME280;33476;50.984;3.538;2023-03-26T08:09:13;100053.09;;;10.78;67.56
47716;BME280;33476;50.984;3.538;2023-03-26T08:11:56;100052.16;;;10.79;67.38
47716;BME280;33476;50.984;3.538;2023-03-26T08:15:27;100052.78;;;10.83;67.52
47716;BME280;33476;50.984;3.538;2023-03-26T08:18:06;100051.22;;;10.80;67.67
47716;BME280;33476;50.984;3.538;2023-03-26T08:21:03;100050.56;;;10.77;67.81
47716;BME280;33476;50.984;3.538;2023-03-26T08:23:45;100053.00;;;10.80;67.80
47716;BME280;33476;50.984;3.538;2023-03-26T08:31:41;100060.00;;;10.79;68.05
47716;BME280;33476;50.984;3.538;2023-03-26T08:34:12;100065.31;;;10.78;68.33
47716;BME280;33476;50.984;3.538;2023-03-26T08:36:38;100065.78;;;10.84;68.22
47716;BME280;33476;50.984;3.538;2023-03-26T08:39:04;100067.16;;;10.76;68.38
47716;BME280;33476;50.984;3.538;2023-03-26T09:01:26;100084.34;;;10.94;68.95
47716;BME280;33476;50.984;3.538;2023-03-26T09:04:33;100082.47;;;10.96;69.18
47716;BME280;33476;50.984;3.538;2023-03-26T09:18:06;100100.19;;;11.19;68.92
47716;BME280;33476;50.984;3.538;2023-03-26T09:31:36;100110.19;;;11.27;68.57
47716;BME280;33476;50.984;3.538;2023-03-26T09:42:54;100124.09;;;11.28;69.40
47716;BME280;33476;50.984;3.538;2023-03-26T09:50:30;100130.69;;;11.33;69.48
47716;BME280;33476;50.984;3.538;2023-03-26T10:01:29;100149.00;;;11.33;69.48
47716;BME280;33476;50.984;3.538;2023-03-26T10:04:20;100152.06;;;11.40;69.19
47716;BME280;33476;50.984;3.538;2023-03-26T10:09:39;100155.34;;;11.29;69.52
47716;BME280;33476;50.984;3.538;2023-03-26T10:12:35;100156.94;;;11.32;69.45
47716;BME280;33476;50.984;3.538;2023-03-26T10:15:34;100162.72;;;11.22;69.54
47716;BME280;33476;50.984;3.538;2023-03-26T10:20:50;100172.91;;;11.27;69.87
47716;BME280;33476;50.984;3.538;2023-03-26T10:36:33;100194.94;;;11.51;69.54
47716;BME280;33476;50.984;3.538;2023-03-26T10:41:58;100207.81;;;11.54;69.25
47716;BME280;33476;50.984;3.538;2023-03-26T10:55:43;100228.91;;;11.66;69.45
47716;BME280;33476;50.984;3.538;2023-03-26T10:58:24;100235.84;;;11.67;69.23
47716;BME280;33476;50.984;3.538;2023-03-26T11:01:01;100233.63;;;11.61;69.21
47716;BME280;33476;50.984;3.538;2023-03-26T11:14:07;100248.63;;;11.71;68.78
47716;BME280;33476;50.984;3.538;2023-03-26T11:17:24;100253.41;;;11.79;68.84
47716;BME280;33476;50.984;3.538;2023-03-26T11:19:51;100264.69;;;11.79;68.82
47716;BME280;33476;50.984;3.538;2023-03-26T11:22:22;100257.03;;;12.05;67.82
47716;BME280;33476;50.984;3.538;2023-03-26T11:33:37;100282.81;;;12.25;68.24
47716;BME280;33476;50.984;3.538;2023-03-26T11:36:07;100280.03;;;12.41;67.37
47716;BME280;33476;50.984;3.538;2023-03-26T11:38:37;100275.13;;;12.49;67.30
47716;BME280;33476;50.984;3.538;2023-03-26T11:41:11;100284.28;;;12.56;67.16
47716;BME280;33476;50.984;3.538;2023-03-26T11:43:36;100286.31;;;12.65;66.24
47716;BME280;33476;50.984;3.538;2023-03-26T11:46:03;100292.69;;;12.61;65.66
47716;BME280;33476;50.984;3.538;2023-03-26T11:48:40;100293.09;;;12.55;65.96
47716;BME280;33476;50.984;3.538;2023-03-26T11:51:11;100291.53;;;12.53;65.63
47716;BME280;33476;50.984;3.538;2023-03-26T11:53:38;100301.63;;;12.59;66.09
47716;BME280;33476;50.984;3.538;2023-03-26T11:56:20;100297.09;;;12.61;66.54
47716;BME280;33476;50.984;3.538;2023-03-26T11:59:04;100306.69;;;12.75;65.93
47716;BME280;33476;50.984;3.538;2023-03-26T12:04:38;100313.13;;;12.83;65.65
47716;BME280;33476;50.984;3.538;2023-03-26T12:12:16;100340.69;;;12.62;65.84
47716;BME280;33476;50.984;3.538;2023-03-26T12:14:42;100338.22;;;12.46;66.56
47716;BME280;33476;50.984;3.538;2023-03-26T12:17:13;100343.44;;;12.46;67.25
47716;BME280;33476;50.984;3.538;2023-03-26T12:19:43;100345.69;;;12.52;66.94
47716;BME280;33476;50.984;3.538;2023-03-26T12:22:34;100346.03;;;12.60;67.32
47716;BME280;33476;50.984;3.538;2023-03-26T12:25:19;100346.53;;;12.80;67.04
47716;BME280;33476;50.984;3.538;2023-03-26T12:30:37;100350.94;;;12.79;66.48
47716;BME280;33476;50.984;3.538;2023-03-26T12:33:05;100364.16;;;12.78;66.61
47716;BME280;33476;50.984;3.538;2023-03-26T12:35:33;100365.25;;;12.74;66.93
47716;BME280;33476;50.984;3.538;2023-03-26T12:38:33;100372.50;;;12.70;66.50
47716;BME280;33476;50.984;3.538;2023-03-26T12:41:17;100381.56;;;12.64;66.28
47716;BME280;33476;50.984;3.538;2023-03-26T12:46:27;100386.94;;;12.49;66.80
47716;BME280;33476;50.984;3.538;2023-03-26T12:48:55;100392.47;;;12.58;66.67
47716;BME280;33476;50.984;3.538;2023-03-26T13:01:54;100403.78;;;12.59;67.28
47716;BME280;33476;50.984;3.538;2023-03-26T13:10:28;100413.31;;;12.60;66.91
47716;BME280;33476;50.984;3.538;2023-03-26T13:16:08;100419.41;;;12.60;67.36
47716;BME280;33476;50.984;3.538;2023-03-26T13:18:33;100419.88;;;12.67;67.65
47716;BME280;33476;50.984;3.538;2023-03-26T13:21:11;100428.66;;;12.66;67.67
47716;BME280;33476;50.984;3.538;2023-03-26T13:23:50;100426.88;;;12.67;67.36
47716;BME280;33476;50.984;3.538;2023-03-26T13:26:44;100432.59;;;12.59;67.59
47716;BME280;33476;50.984;3.538;2023-03-26T13:29:21;100436.34;;;12.55;67.42
47716;BME280;33476;50.984;3.538;2023-03-26T13:34:35;100438.84;;;12.56;67.89
47716;BME280;33476;50.984;3.538;2023-03-26T13:37:13;100445.34;;;12.51;67.99
47716;BME280;33476;50.984;3.538;2023-03-26T13:40:00;100447.19;;;12.49;68.54
47716;BME280;33476;50.984;3.538;2023-03-26T13:42:47;100453.34;;;12.48;68.55
47716;BME280;33476;50.984;3.538;2023-03-26T13:45:43;100458.78;;;12.45;68.91
47716;BME280;33476;50.984;3.538;2023-03-26T13:48:16;100454.66;;;12.41;68.88
47716;BME280;33476;50.984;3.538;2023-03-26T13:50:48;100460.69;;;12.43;68.81
47716;BME280;33476;50.984;3.538;2023-03-26T13:53:21;100464.78;;;12.47;68.74
47716;BME280;33476;50.984;3.538;2023-03-26T13:55:53;100466.19;;;12.52;68.67
47716;BME280;33476;50.984;3.538;2023-03-26T13:58:24;100473.22;;;12.52;68.66
47716;BME280;33476;50.984;3.538;2023-03-26T14:03:52;100479.66;;;12.46;69.01
47716;BME280;33476;50.984;3.538;2023-03-26T14:06:48;100485.63;;;12.48;68.80
47716;BME280;33476;50.984;3.538;2023-03-26T14:15:01;100488.63;;;12.56;68.94
47716;BME280;33476;50.984;3.538;2023-03-26T14:25:49;100494.81;;;12.55;68.75
47716;BME280;33476;50.984;3.538;2023-03-26T14:28:37;100508.00;;;12.54;69.01
47716;BME280;33476;50.984;3.538;2023-03-26T14:31:21;100510.44;;;12.57;69.19
47716;BME280;33476;50.984;3.538;2023-03-26T14:34:04;100513.97;;;12.56;69.00
47716;BME280;33476;50.984;3.538;2023-03-26T14:36:56;100505.84;;;12.60;69.43
47716;BME280;33476;50.984;3.538;2023-03-26T14:53:32;100554.91;;;12.58;69.39
47716;BME280;33476;50.984;3.538;2023-03-26T15:12:59;100585.81;;;12.37;70.17
47716;BME280;33476;50.984;3.538;2023-03-26T15:15:56;100590.22;;;12.37;70.14
47716;BME280;33476;50.984;3.538;2023-03-26T15:19:22;100604.06;;;12.39;69.58
47716;BME280;33476;50.984;3.538;2023-03-26T15:39:56;100652.28;;;12.05;67.87
47716;BME280;33476;50.984;3.538;2023-03-26T15:45:36;100675.66;;;12.08;67.55
47716;BME280;33476;50.984;3.538;2023-03-26T15:50:51;100694.69;;;11.96;67.10
47716;BME280;33476;50.984;3.538;2023-03-26T15:53:31;100700.78;;;11.96;66.52
47716;BME280;33476;50.984;3.538;2023-03-26T15:56:12;100698.91;;;11.82;66.51
47716;BME280;33476;50.984;3.538;2023-03-26T15:58:58;100701.59;;;11.81;66.39
47716;BME280;33476;50.984;3.538;2023-03-26T16:07:22;100730.03;;;11.71;65.70
47716;BME280;33476;50.984;3.538;2023-03-26T16:12:31;100741.16;;;11.59;65.47
47716;BME280;33476;50.984;3.538;2023-03-26T16:23:29;100775.69;;;11.48;64.93
47716;BME280;33476;50.984;3.538;2023-03-26T16:26:10;100781.59;;;11.36;64.97
47716;BME280;33476;50.984;3.538;2023-03-26T16:33:57;100802.25;;;11.41;63.71
47716;BME280;33476;50.984;3.538;2023-03-26T16:36:35;100813.25;;;11.47;63.69
47716;BME280;33476;50.984;3.538;2023-03-26T16:41:50;100822.19;;;11.43;63.67
47716;BME280;33476;50.984;3.538;2023-03-26T16:47:21;100841.09;;;11.48;63.50
47716;BME280;33476;50.984;3.538;2023-03-26T16:55:38;100855.47;;;11.40;62.88
47716;BME280;33476;50.984;3.538;2023-03-26T17:06:13;100884.88;;;11.45;62.38
47716;BME280;33476;50.984;3.538;2023-03-26T17:16:43;100911.53;;;11.17;61.41
47716;BME280;33476;50.984;3.538;2023-03-26T17:24:53;100932.97;;;11.06;61.27
47716;BME280;33476;50.984;3.538;2023-03-26T17:27:28;100937.34;;;11.06;60.86
47716;BME280;33476;50.984;3.538;2023-03-26T17:35:44;100968.31;;;10.96;60.81
47716;BME280;33476;50.984;3.538;2023-03-26T17:40:50;100985.03;;;10.92;60.33
47716;BME280;33476;50.984;3.538;2023-03-26T17:54:32;101018.59;;;10.82;59.82
47716;BME280;33476;50.984;3.538;2023-03-26T17:57:12;101025.81;;;10.77;59.90
47716;BME280;33476;50.984;3.538;2023-03-26T17:59:41;101020.78;;;10.73;59.82
47716;BME280;33476;50.984;3.538;2023-03-26T18:02:14;101039.31;;;10.66;59.55
47716;BME280;33476;50.984;3.538;2023-03-26T18:04:42;101041.16;;;10.64;59.65
47716;BME280;33476;50.984;3.538;2023-03-26T18:10:19;101053.59;;;10.59;59.39
47716;BME280;33476;50.984;3.538;2023-03-26T18:18:27;101072.41;;;10.47;59.07
47716;BME280;33476;50.984;3.538;2023-03-26T18:20:57;101086.53;;;10.43;58.25
47716;BME280;33476;50.984;3.538;2023-03-26T18:23:44;101084.44;;;10.31;58.45
47716;BME280;33476;50.984;3.538;2023-03-26T18:26:18;101093.94;;;10.32;58.07
47716;BME280;33476;50.984;3.538;2023-03-26T18:28:51;101098.22;;;10.34;57.79
47716;BME280;33476;50.984;3.538;2023-03-26T18:31:19;101107.75;;;10.35;57.70
47716;BME280;33476;50.984;3.538;2023-03-26T18:33:48;101111.28;;;10.34;57.38
47716;BME280;33476;50.984;3.538;2023-03-26T18:36:15;101116.59;;;10.31;57.27
47716;BME280;33476;50.984;3.538;2023-03-26T18:38:41;101126.19;;;10.31;57.11
47716;BME280;33476;50.984;3.538;2023-03-26T18:41:15;101126.44;;;10.25;56.74
47716;BME280;33476;50.984;3.538;2023-03-26T18:43:40;101137.69;;;10.27;56.99
47716;BME280;33476;50.984;3.538;2023-03-26T18:46:06;101137.69;;;10.27;56.86
47716;BME280;33476;50.984;3.538;2023-03-26T18:48:31;101145.69;;;10.22;56.34
47716;BME280;33476;50.984;3.538;2023-03-26T18:51:02;101159.09;;;10.13;56.75